sensor_id;sensor_type;location;lat;lon;timestamp;temperature;humidity
38788;DHT22;24536;45.488;12.238;2024-03-08T00:01:12;11.80;95.30
38788;DHT22;24536;45.488;12.238;2024-03-08T00:03:38;11.80;95.10
38788;DHT22;24536;45.488;12.238;2024-03-08T00:06:05;11.70;94.50
38788;DHT22;24536;45.488;12.238;2024-03-08T00:08:31;11.70;94.80
38788;DHT22;24536;45.488;12.238;2024-03-08T00:10:57;11.70;94.80
38788;DHT22;24536;45.488;12.238;2024-03-08T00:13:23;11.70;94.90
38788;DHT22;24536;45.488;12.238;2024-03-08T00:15:50;11.60;94.80
38788;DHT22;24536;45.488;12.238;2024-03-08T00:18:16;11.60;94.90
38788;DHT22;24536;45.488;12.238;2024-03-08T00:20:42;11.60;95.00
38788;DHT22;24536;45.488;12.238;2024-03-08T00:23:09;11.70;94.90
38788;DHT22;24536;45.488;12.238;2024-03-08T00:25:36;11.70;94.90
38788;DHT22;24536;45.488;12.238;2024-03-08T00:28:02;11.80;95.00
38788;DHT22;24536;45.488;12.238;2024-03-08T00:30:27;11.80;94.70
38788;DHT22;24536;45.488;12.238;2024-03-08T00:32:53;11.90;94.60
38788;DHT22;24536;45.488;12.238;2024-03-08T00:35:19;11.90;94.50
38788;DHT22;24536;45.488;12.238;2024-03-08T00:37:44;12.00;94.50
38788;DHT22;24536;45.488;12.238;2024-03-08T00:40:13;11.90;94.40
38788;DHT22;24536;45.488;12.238;2024-03-08T00:42:38;11.80;94.50
38788;DHT22;24536;45.488;12.238;2024-03-08T00:45:06;11.90;94.50
38788;DHT22;24536;45.488;12.238;2024-03-08T00:47:33;11.80;94.70
38788;DHT22;24536;45.488;12.238;2024-03-08T00:49:58;11.90;94.90
38788;DHT22;24536;45.488;12.238;2024-03-08T00:52:24;11.90;95.00
38788;DHT22;24536;45.488;12.238;2024-03-08T00:54:50;11.90;94.90
38788;DHT22;24536;45.488;12.238;2024-03-08T00:57:15;11.90;94.80
38788;DHT22;24536;45.488;12.238;2024-03-08T00:59:41;11.90;94.80
38788;DHT22;24536;45.488;12.238;2024-03-08T01:02:07;11.90;94.70
38788;DHT22;24536;45.488;12.238;2024-03-08T01:04:34;11.90;94.70
38788;DHT22;24536;45.488;12.238;2024-03-08T01:07:00;11.90;94.60
38788;DHT22;24536;45.488;12.238;2024-03-08T01:09:27;11.90;94.70
38788;DHT22;24536;45.488;12.238;2024-03-08T01:11:55;11.90;94.80
38788;DHT22;24536;45.488;12.238;2024-03-08T01:14:24;12.00;94.60
38788;DHT22;24536;45.488;12.238;2024-03-08T01:16:55;12.00;94.70
38788;DHT22;24536;45.488;12.238;2024-03-08T01:19:21;12.00;94.70
38788;DHT22;24536;45.488;12.238;2024-03-08T01:21:46;12.00;94.70
38788;DHT22;24536;45.488;12.238;2024-03-08T01:24:12;12.00;94.70
38788;DHT22;24536;45.488;12.238;2024-03-08T01:26:38;12.00;94.80
38788;DHT22;24536;45.488;12.238;2024-03-08T01:29:04;12.00;94.90
38788;DHT22;24536;45.488;12.238;2024-03-08T01:31:30;11.90;94.80
38788;DHT22;24536;45.488;12.238;2024-03-08T01:33:56;11.90;95.10
38788;DHT22;24536;45.488;12.238;2024-03-08T01:36:22;11.90;94.90
38788;DHT22;24536;45.488;12.238;2024-03-08T01:38:48;11.90;95.00
38788;DHT22;24536;45.488;12.238;2024-03-08T01:41:14;11.90;95.20
38788;DHT22;24536;45.488;12.238;2024-03-08T01:43:41;11.90;95.10
38788;DHT22;24536;45.488;12.238;2024-03-08T01:46:07;11.90;95.00
38788;DHT22;24536;45.488;12.238;2024-03-08T01:48:34;11.90;94.90
38788;DHT22;24536;45.488;12.238;2024-03-08T01:51:00;11.90;94.90
38788;DHT22;24536;45.488;12.238;2024-03-08T01:53:27;11.90;94.90
38788;DHT22;24536;45.488;12.238;2024-03-08T01:55:58;11.90;94.80
38788;DHT22;24536;45.488;12.238;2024-03-08T01:58:24;11.80;94.80
38788;DHT22;24536;45.488;12.238;2024-03-08T02:00:53;11.80;95.00
38788;DHT22;24536;45.488;12.238;2024-03-08T02:03:18;11.80;95.00
38788;DHT22;24536;45.488;12.238;2024-03-08T02:05:44;11.80;95.00
38788;DHT22;24536;45.488;12.238;2024-03-08T02:08:10;11.80;95.10
38788;DHT22;24536;45.488;12.238;2024-03-08T02:10:43;11.70;95.10
38788;DHT22;24536;45.488;12.238;2024-03-08T02:13:10;11.70;95.20
38788;DHT22;24536;45.488;12.238;2024-03-08T02:18:18;11.70;95.10
38788;DHT22;24536;45.488;12.238;2024-03-08T02:20:51;11.60;95.20
38788;DHT22;24536;45.488;12.238;2024-03-08T02:23:19;11.60;95.20
38788;DHT22;24536;45.488;12.238;2024-03-08T02:25:45;11.60;95.30
38788;DHT22;24536;45.488;12.238;2024-03-08T02:28:12;11.60;95.30
38788;DHT22;24536;45.488;12.238;2024-03-08T02:30:38;11.60;95.20
38788;DHT22;24536;45.488;12.238;2024-03-08T02:33:04;11.60;95.30
38788;DHT22;24536;45.488;12.238;2024-03-08T02:35:30;11.60;95.30
38788;DHT22;24536;45.488;12.238;2024-03-08T02:37:56;11.60;95.40
38788;DHT22;24536;45.488;12.238;2024-03-08T02:40:22;11.60;95.30
38788;DHT22;24536;45.488;12.238;2024-03-08T02:42:47;11.60;95.30
38788;DHT22;24536;45.488;12.238;2024-03-08T02:45:13;11.50;95.30
38788;DHT22;24536;45.488;12.238;2024-03-08T02:47:39;11.60;95.40
38788;DHT22;24536;45.488;12.238;2024-03-08T02:50:05;11.60;95.30
38788;DHT22;24536;45.488;12.238;2024-03-08T02:52:33;11.60;95.20
38788;DHT22;24536;45.488;12.238;2024-03-08T02:54:59;11.60;95.20
38788;DHT22;24536;45.488;12.238;2024-03-08T02:57:25;11.50;94.80
38788;DHT22;24536;45.488;12.238;2024-03-08T02:59:50;11.50;94.90
38788;DHT22;24536;45.488;12.238;2024-03-08T03:02:16;11.50;94.90
38788;DHT22;24536;45.488;12.238;2024-03-08T03:04:42;11.50;94.80
38788;DHT22;24536;45.488;12.238;2024-03-08T03:07:08;11.50;94.90
38788;DHT22;24536;45.488;12.238;2024-03-08T03:09:34;11.40;94.80
38788;DHT22;24536;45.488;12.238;2024-03-08T03:12:00;11.40;94.80
38788;DHT22;24536;45.488;12.238;2024-03-08T03:14:26;11.30;94.90
38788;DHT22;24536;45.488;12.238;2024-03-08T03:16:52;11.30;94.90
38788;DHT22;24536;45.488;12.238;2024-03-08T03:19:18;11.30;94.80
38788;DHT22;24536;45.488;12.238;2024-03-08T03:21:44;11.30;94.60
38788;DHT22;24536;45.488;12.238;2024-03-08T03:24:10;11.30;94.70
38788;DHT22;24536;45.488;12.238;2024-03-08T03:26:38;11.30;94.70
38788;DHT22;24536;45.488;12.238;2024-03-08T03:29:06;11.30;94.70
38788;DHT22;24536;45.488;12.238;2024-03-08T03:31:32;11.30;94.60
38788;DHT22;24536;45.488;12.238;2024-03-08T03:33:57;11.30;94.40
38788;DHT22;24536;45.488;12.238;2024-03-08T03:36:31;11.30;94.40
38788;DHT22;24536;45.488;12.238;2024-03-08T03:38:56;11.30;94.40
38788;DHT22;24536;45.488;12.238;2024-03-08T03:41:32;11.30;94.40
38788;DHT22;24536;45.488;12.238;2024-03-08T03:43:58;11.30;94.40
38788;DHT22;24536;45.488;12.238;2024-03-08T03:46:24;11.20;94.30
38788;DHT22;24536;45.488;12.238;2024-03-08T03:48:53;11.20;94.30
38788;DHT22;24536;45.488;12.238;2024-03-08T03:51:19;11.10;94.20
38788;DHT22;24536;45.488;12.238;2024-03-08T03:53:45;11.10;94.20
38788;DHT22;24536;45.488;12.238;2024-03-08T03:56:11;11.10;94.30
38788;DHT22;24536;45.488;12.238;2024-03-08T03:58:36;11.00;94.30
38788;DHT22;24536;45.488;12.238;2024-03-08T04:01:04;11.00;94.40
38788;DHT22;24536;45.488;12.238;2024-03-08T04:03:30;11.10;94.40
38788;DHT22;24536;45.488;12.238;2024-03-08T04:05:56;11.10;94.40
38788;DHT22;24536;45.488;12.238;2024-03-08T04:08:21;11.10;94.50
38788;DHT22;24536;45.488;12.238;2024-03-08T04:10:49;11.00;94.50
38788;DHT22;24536;45.488;12.238;2024-03-08T04:13:15;11.00;94.30
38788;DHT22;24536;45.488;12.238;2024-03-08T04:15:41;11.00;94.30
38788;DHT22;24536;45.488;12.238;2024-03-08T04:18:09;11.00;94.40
38788;DHT22;24536;45.488;12.238;2024-03-08T04:20:35;11.00;94.40
38788;DHT22;24536;45.488;12.238;2024-03-08T04:23:02;10.90;94.40
38788;DHT22;24536;45.488;12.238;2024-03-08T04:25:27;10.90;94.50
38788;DHT22;24536;45.488;12.238;2024-03-08T04:27:53;10.90;94.40
38788;DHT22;24536;45.488;12.238;2024-03-08T04:30:19;11.00;94.30
38788;DHT22;24536;45.488;12.238;2024-03-08T04:32:46;11.00;94.20
38788;DHT22;24536;45.488;12.238;2024-03-08T04:35:12;11.00;94.20
38788;DHT22;24536;45.488;12.238;2024-03-08T04:37:38;10.90;94.20
38788;DHT22;24536;45.488;12.238;2024-03-08T04:40:05;10.90;94.30
38788;DHT22;24536;45.488;12.238;2024-03-08T04:42:31;10.90;94.30
38788;DHT22;24536;45.488;12.238;2024-03-08T04:45:00;10.90;94.30
38788;DHT22;24536;45.488;12.238;2024-03-08T04:47:26;11.00;94.30
38788;DHT22;24536;45.488;12.238;2024-03-08T04:49:52;10.90;94.40
38788;DHT22;24536;45.488;12.238;2024-03-08T04:52:18;10.90;94.40
38788;DHT22;24536;45.488;12.238;2024-03-08T04:54:44;10.90;94.50
38788;DHT22;24536;45.488;12.238;2024-03-08T04:57:25;10.90;94.60
38788;DHT22;24536;45.488;12.238;2024-03-08T04:59:51;11.00;94.50
38788;DHT22;24536;45.488;12.238;2024-03-08T05:02:16;11.00;94.50
38788;DHT22;24536;45.488;12.238;2024-03-08T05:04:43;11.00;94.50
38788;DHT22;24536;45.488;12.238;2024-03-08T05:07:09;10.90;94.60
38788;DHT22;24536;45.488;12.238;2024-03-08T05:09:35;10.90;94.70
38788;DHT22;24536;45.488;12.238;2024-03-08T05:12:01;10.90;94.70
38788;DHT22;24536;45.488;12.238;2024-03-08T05:14:27;10.80;94.70
38788;DHT22;24536;45.488;12.238;2024-03-08T05:16:53;10.80;94.90
38788;DHT22;24536;45.488;12.238;2024-03-08T05:19:19;10.80;94.90
38788;DHT22;24536;45.488;12.238;2024-03-08T05:21:48;10.80;94.90
38788;DHT22;24536;45.488;12.238;2024-03-08T05:24:14;10.80;94.90
38788;DHT22;24536;45.488;12.238;2024-03-08T05:26:41;10.70;95.00
38788;DHT22;24536;45.488;12.238;2024-03-08T05:29:07;10.70;95.00
38788;DHT22;24536;45.488;12.238;2024-03-08T05:31:51;10.70;95.00
38788;DHT22;24536;45.488;12.238;2024-03-08T05:34:20;10.70;95.10
38788;DHT22;24536;45.488;12.238;2024-03-08T05:36:47;10.60;95.00
38788;DHT22;24536;45.488;12.238;2024-03-08T05:39:16;10.60;95.00
38788;DHT22;24536;45.488;12.238;2024-03-08T05:41:42;10.60;95.10
38788;DHT22;24536;45.488;12.238;2024-03-08T05:44:09;10.60;95.20
38788;DHT22;24536;45.488;12.238;2024-03-08T05:46:36;10.60;95.30
38788;DHT22;24536;45.488;12.238;2024-03-08T05:49:08;10.60;95.30
38788;DHT22;24536;45.488;12.238;2024-03-08T05:51:36;10.60;95.50
38788;DHT22;24536;45.488;12.238;2024-03-08T05:54:08;10.60;95.70
38788;DHT22;24536;45.488;12.238;2024-03-08T05:56:35;10.60;95.80
38788;DHT22;24536;45.488;12.238;2024-03-08T05:59:07;10.60;96.00
38788;DHT22;24536;45.488;12.238;2024-03-08T06:01:33;10.60;96.00
38788;DHT22;24536;45.488;12.238;2024-03-08T06:04:01;10.60;95.90
38788;DHT22;24536;45.488;12.238;2024-03-08T06:06:27;10.60;96.00
38788;DHT22;24536;45.488;12.238;2024-03-08T06:08:53;10.50;96.10
38788;DHT22;24536;45.488;12.238;2024-03-08T06:11:20;10.50;96.10
38788;DHT22;24536;45.488;12.238;2024-03-08T06:13:46;10.50;96.20
38788;DHT22;24536;45.488;12.238;2024-03-08T06:16:12;10.50;96.20
38788;DHT22;24536;45.488;12.238;2024-03-08T06:18:38;10.40;96.10
38788;DHT22;24536;45.488;12.238;2024-03-08T06:21:07;10.40;96.10
38788;DHT22;24536;45.488;12.238;2024-03-08T06:23:35;10.40;96.00
38788;DHT22;24536;45.488;12.238;2024-03-08T06:26:04;10.40;96.20
38788;DHT22;24536;45.488;12.238;2024-03-08T06:28:30;10.40;96.20
38788;DHT22;24536;45.488;12.238;2024-03-08T06:30:58;10.40;96.20
38788;DHT22;24536;45.488;12.238;2024-03-08T06:33:24;10.50;96.20
38788;DHT22;24536;45.488;12.238;2024-03-08T06:35:52;10.50;96.10
38788;DHT22;24536;45.488;12.238;2024-03-08T06:38:18;10.50;96.10
38788;DHT22;24536;45.488;12.238;2024-03-08T06:40:45;10.50;96.00
38788;DHT22;24536;45.488;12.238;2024-03-08T06:43:13;10.40;96.20
38788;DHT22;24536;45.488;12.238;2024-03-08T06:45:47;10.40;96.20
38788;DHT22;24536;45.488;12.238;2024-03-08T06:48:18;10.40;96.30
38788;DHT22;24536;45.488;12.238;2024-03-08T06:50:47;10.50;96.30
38788;DHT22;24536;45.488;12.238;2024-03-08T06:53:13;10.50;96.40
38788;DHT22;24536;45.488;12.238;2024-03-08T06:55:39;10.50;96.50
38788;DHT22;24536;45.488;12.238;2024-03-08T06:58:05;10.50;96.60
38788;DHT22;24536;45.488;12.238;2024-03-08T07:00:32;10.50;96.30
38788;DHT22;24536;45.488;12.238;2024-03-08T07:02:58;10.50;96.30
38788;DHT22;24536;45.488;12.238;2024-03-08T07:05:27;10.50;96.10
38788;DHT22;24536;45.488;12.238;2024-03-08T07:07:53;10.50;96.10
38788;DHT22;24536;45.488;12.238;2024-03-08T07:10:23;10.40;96.10
38788;DHT22;24536;45.488;12.238;2024-03-08T07:12:52;10.40;96.20
38788;DHT22;24536;45.488;12.238;2024-03-08T07:15:18;10.40;96.30
38788;DHT22;24536;45.488;12.238;2024-03-08T07:17:45;10.40;96.30
38788;DHT22;24536;45.488;12.238;2024-03-08T07:20:11;10.30;96.60
38788;DHT22;24536;45.488;12.238;2024-03-08T07:22:38;10.40;96.50
38788;DHT22;24536;45.488;12.238;2024-03-08T07:25:08;10.40;96.40
38788;DHT22;24536;45.488;12.238;2024-03-08T07:27:42;10.40;96.80
38788;DHT22;24536;45.488;12.238;2024-03-08T07:30:09;10.50;96.60
38788;DHT22;24536;45.488;12.238;2024-03-08T07:32:38;10.60;96.40
38788;DHT22;24536;45.488;12.238;2024-03-08T07:35:04;10.60;96.90
38788;DHT22;24536;45.488;12.238;2024-03-08T07:37:29;10.60;96.40
38788;DHT22;24536;45.488;12.238;2024-03-08T07:39:57;10.60;96.40
38788;DHT22;24536;45.488;12.238;2024-03-08T07:42:23;10.50;96.40
38788;DHT22;24536;45.488;12.238;2024-03-08T07:44:49;10.50;96.20
38788;DHT22;24536;45.488;12.238;2024-03-08T07:47:15;10.40;96.20
38788;DHT22;24536;45.488;12.238;2024-03-08T07:49:42;10.30;96.40
38788;DHT22;24536;45.488;12.238;2024-03-08T07:52:09;10.30;96.40
38788;DHT22;24536;45.488;12.238;2024-03-08T07:54:39;10.30;96.60
38788;DHT22;24536;45.488;12.238;2024-03-08T07:57:05;10.40;96.70
38788;DHT22;24536;45.488;12.238;2024-03-08T07:59:32;10.30;96.60
38788;DHT22;24536;45.488;12.238;2024-03-08T08:01:58;10.30;96.60
38788;DHT22;24536;45.488;12.238;2024-03-08T08:04:25;10.30;96.80
38788;DHT22;24536;45.488;12.238;2024-03-08T08:06:50;10.30;96.60
38788;DHT22;24536;45.488;12.238;2024-03-08T08:09:17;10.30;96.80
38788;DHT22;24536;45.488;12.238;2024-03-08T08:11:56;10.40;96.90
38788;DHT22;24536;45.488;12.238;2024-03-08T08:14:22;10.40;96.80
38788;DHT22;24536;45.488;12.238;2024-03-08T08:16:48;10.40;96.70
38788;DHT22;24536;45.488;12.238;2024-03-08T08:19:15;10.40;96.80
38788;DHT22;24536;45.488;12.238;2024-03-08T08:21:41;10.40;96.90
38788;DHT22;24536;45.488;12.238;2024-03-08T08:24:07;10.40;96.80
38788;DHT22;24536;45.488;12.238;2024-03-08T08:26:33;10.30;96.80
38788;DHT22;24536;45.488;12.238;2024-03-08T08:28:59;10.40;96.80
38788;DHT22;24536;45.488;12.238;2024-03-08T08:31:25;10.40;96.80
38788;DHT22;24536;45.488;12.238;2024-03-08T08:33:51;10.40;96.90
38788;DHT22;24536;45.488;12.238;2024-03-08T08:36:23;10.30;96.80
38788;DHT22;24536;45.488;12.238;2024-03-08T08:38:49;10.40;96.90
38788;DHT22;24536;45.488;12.238;2024-03-08T08:41:15;10.40;96.90
38788;DHT22;24536;45.488;12.238;2024-03-08T08:43:43;10.40;96.90
38788;DHT22;24536;45.488;12.238;2024-03-08T08:46:11;10.30;96.80
38788;DHT22;24536;45.488;12.238;2024-03-08T08:48:40;10.30;96.70
38788;DHT22;24536;45.488;12.238;2024-03-08T08:51:10;10.30;96.90
38788;DHT22;24536;45.488;12.238;2024-03-08T08:53:41;10.30;96.90
38788;DHT22;24536;45.488;12.238;2024-03-08T08:56:12;10.40;96.90
38788;DHT22;24536;45.488;12.238;2024-03-08T08:58:41;10.40;96.80
38788;DHT22;24536;45.488;12.238;2024-03-08T09:01:08;10.40;96.80
38788;DHT22;24536;45.488;12.238;2024-03-08T09:03:35;10.40;96.80
38788;DHT22;24536;45.488;12.238;2024-03-08T09:06:03;10.30;96.70
38788;DHT22;24536;45.488;12.238;2024-03-08T09:08:29;10.30;96.80
38788;DHT22;24536;45.488;12.238;2024-03-08T09:10:55;10.30;96.90
38788;DHT22;24536;45.488;12.238;2024-03-08T09:13:20;10.30;96.90
38788;DHT22;24536;45.488;12.238;2024-03-08T09:15:46;10.30;96.90
38788;DHT22;24536;45.488;12.238;2024-03-08T09:18:12;10.20;97.10
38788;DHT22;24536;45.488;12.238;2024-03-08T09:20:38;10.30;97.10
38788;DHT22;24536;45.488;12.238;2024-03-08T09:23:03;10.30;97.30
38788;DHT22;24536;45.488;12.238;2024-03-08T09:25:29;10.40;97.30
38788;DHT22;24536;45.488;12.238;2024-03-08T09:27:55;10.30;97.00
38788;DHT22;24536;45.488;12.238;2024-03-08T09:30:21;10.20;97.00
38788;DHT22;24536;45.488;12.238;2024-03-08T09:32:47;10.10;97.20
38788;DHT22;24536;45.488;12.238;2024-03-08T09:35:14;10.10;97.20
38788;DHT22;24536;45.488;12.238;2024-03-08T09:37:40;10.10;97.30
38788;DHT22;24536;45.488;12.238;2024-03-08T09:40:06;10.20;97.40
38788;DHT22;24536;45.488;12.238;2024-03-08T09:42:35;10.20;97.30
38788;DHT22;24536;45.488;12.238;2024-03-08T09:45:10;10.30;97.20
38788;DHT22;24536;45.488;12.238;2024-03-08T09:47:42;10.30;97.10
38788;DHT22;24536;45.488;12.238;2024-03-08T09:50:08;10.40;97.10
38788;DHT22;24536;45.488;12.238;2024-03-08T09:52:37;10.40;97.10
38788;DHT22;24536;45.488;12.238;2024-03-08T09:55:06;10.50;97.00
38788;DHT22;24536;45.488;12.238;2024-03-08T09:57:33;10.50;96.60
38788;DHT22;24536;45.488;12.238;2024-03-08T10:00:02;10.50;96.80
38788;DHT22;24536;45.488;12.238;2024-03-08T10:02:35;10.60;96.80
38788;DHT22;24536;45.488;12.238;2024-03-08T10:05:01;10.80;97.00
38788;DHT22;24536;45.488;12.238;2024-03-08T10:07:28;10.90;96.90
38788;DHT22;24536;45.488;12.238;2024-03-08T10:09:54;11.10;96.60
38788;DHT22;24536;45.488;12.238;2024-03-08T10:12:20;11.30;96.70
38788;DHT22;24536;45.488;12.238;2024-03-08T10:14:46;11.40;96.50
38788;DHT22;24536;45.488;12.238;2024-03-08T10:17:12;11.50;96.40
38788;DHT22;24536;45.488;12.238;2024-03-08T10:19:38;11.60;96.10
38788;DHT22;24536;45.488;12.238;2024-03-08T10:22:05;11.50;95.40
38788;DHT22;24536;45.488;12.238;2024-03-08T10:24:32;11.50;95.70
38788;DHT22;24536;45.488;12.238;2024-03-08T10:27:02;11.60;95.80
38788;DHT22;24536;45.488;12.238;2024-03-08T10:29:31;11.60;95.60
38788;DHT22;24536;45.488;12.238;2024-03-08T10:31:57;11.80;95.60
38788;DHT22;24536;45.488;12.238;2024-03-08T10:34:23;11.80;95.30
38788;DHT22;24536;45.488;12.238;2024-03-08T10:36:50;11.80;95.30
38788;DHT22;24536;45.488;12.238;2024-03-08T10:39:24;11.90;94.60
38788;DHT22;24536;45.488;12.238;2024-03-08T10:41:58;11.80;94.90
38788;DHT22;24536;45.488;12.238;2024-03-08T10:47:19;11.90;94.70
38788;DHT22;24536;45.488;12.238;2024-03-08T10:50:16;12.00;94.50
38788;DHT22;24536;45.488;12.238;2024-03-08T10:52:48;12.10;94.30
38788;DHT22;24536;45.488;12.238;2024-03-08T10:55:16;12.20;94.40
38788;DHT22;24536;45.488;12.238;2024-03-08T10:57:42;12.30;94.30
38788;DHT22;24536;45.488;12.238;2024-03-08T11:00:10;12.40;94.10
38788;DHT22;24536;45.488;12.238;2024-03-08T11:02:37;12.50;93.80
38788;DHT22;24536;45.488;12.238;2024-03-08T11:05:03;12.40;93.30
38788;DHT22;24536;45.488;12.238;2024-03-08T11:07:33;12.40;93.80
38788;DHT22;24536;45.488;12.238;2024-03-08T11:10:02;12.30;93.20
38788;DHT22;24536;45.488;12.238;2024-03-08T11:12:36;12.30;93.30
38788;DHT22;24536;45.488;12.238;2024-03-08T11:15:10;12.20;93.30
38788;DHT22;24536;45.488;12.238;2024-03-08T11:22:42;12.10;93.40
38788;DHT22;24536;45.488;12.238;2024-03-08T11:30:33;12.40;93.50
38788;DHT22;24536;45.488;12.238;2024-03-08T11:33:01;12.50;93.20
38788;DHT22;24536;45.488;12.238;2024-03-08T11:35:28;12.50;93.00
38788;DHT22;24536;45.488;12.238;2024-03-08T11:37:57;12.50;92.90
38788;DHT22;24536;45.488;12.238;2024-03-08T11:40:24;12.40;93.00
38788;DHT22;24536;45.488;12.238;2024-03-08T11:42:49;12.20;93.00
38788;DHT22;24536;45.488;12.238;2024-03-08T11:45:17;12.10;93.10
38788;DHT22;24536;45.488;12.238;2024-03-08T11:47:43;12.00;93.00
38788;DHT22;24536;45.488;12.238;2024-03-08T11:50:12;12.00;93.10
38788;DHT22;24536;45.488;12.238;2024-03-08T11:52:38;12.00;93.20
38788;DHT22;24536;45.488;12.238;2024-03-08T11:55:04;12.00;93.20
38788;DHT22;24536;45.488;12.238;2024-03-08T11:57:31;11.90;92.60
38788;DHT22;24536;45.488;12.238;2024-03-08T11:59:58;11.90;92.90
38788;DHT22;24536;45.488;12.238;2024-03-08T12:02:32;11.90;92.90
38788;DHT22;24536;45.488;12.238;2024-03-08T12:04:58;11.70;93.00
38788;DHT22;24536;45.488;12.238;2024-03-08T12:07:31;11.70;93.10
38788;DHT22;24536;45.488;12.238;2024-03-08T12:10:17;11.70;93.30
38788;DHT22;24536;45.488;12.238;2024-03-08T12:12:47;11.50;92.70
38788;DHT22;24536;45.488;12.238;2024-03-08T12:15:15;11.50;93.00
38788;DHT22;24536;45.488;12.238;2024-03-08T12:17:44;11.40;93.20
38788;DHT22;24536;45.488;12.238;2024-03-08T12:22:44;11.30;92.90
38788;DHT22;24536;45.488;12.238;2024-03-08T12:25:13;11.20;93.20
38788;DHT22;24536;45.488;12.238;2024-03-08T12:27:40;11.20;93.30
38788;DHT22;24536;45.488;12.238;2024-03-08T12:30:26;11.30;93.30
38788;DHT22;24536;45.488;12.238;2024-03-08T12:33:00;11.30;93.30
38788;DHT22;24536;45.488;12.238;2024-03-08T12:35:30;11.30;93.20
38788;DHT22;24536;45.488;12.238;2024-03-08T12:37:56;11.20;93.10
38788;DHT22;24536;45.488;12.238;2024-03-08T12:40:29;11.30;93.30
38788;DHT22;24536;45.488;12.238;2024-03-08T12:43:00;11.30;93.20
38788;DHT22;24536;45.488;12.238;2024-03-08T12:45:26;11.30;93.30
38788;DHT22;24536;45.488;12.238;2024-03-08T12:47:55;11.30;93.00
38788;DHT22;24536;45.488;12.238;2024-03-08T12:50:22;11.30;92.90
38788;DHT22;24536;45.488;12.238;2024-03-08T12:52:48;11.30;92.70
38788;DHT22;24536;45.488;12.238;2024-03-08T12:55:15;11.40;92.90
38788;DHT22;24536;45.488;12.238;2024-03-08T12:57:42;11.40;92.90
38788;DHT22;24536;45.488;12.238;2024-03-08T13:00:08;11.40;92.90
38788;DHT22;24536;45.488;12.238;2024-03-08T13:02:48;11.40;92.70
38788;DHT22;24536;45.488;12.238;2024-03-08T13:05:16;11.30;92.90
38788;DHT22;24536;45.488;12.238;2024-03-08T13:07:43;11.20;92.80
38788;DHT22;24536;45.488;12.238;2024-03-08T13:10:15;11.30;92.90
38788;DHT22;24536;45.488;12.238;2024-03-08T13:12:44;11.30;92.50
38788;DHT22;24536;45.488;12.238;2024-03-08T13:15:10;11.30;92.60
38788;DHT22;24536;45.488;12.238;2024-03-08T13:17:40;11.30;92.40
38788;DHT22;24536;45.488;12.238;2024-03-08T13:20:08;11.30;92.50
38788;DHT22;24536;45.488;12.238;2024-03-08T13:22:34;11.30;92.70
38788;DHT22;24536;45.488;12.238;2024-03-08T13:24:59;11.40;92.70
38788;DHT22;24536;45.488;12.238;2024-03-08T13:27:27;11.40;92.70
38788;DHT22;24536;45.488;12.238;2024-03-08T13:29:53;11.40;92.50
38788;DHT22;24536;45.488;12.238;2024-03-08T13:32:19;11.40;92.40
38788;DHT22;24536;45.488;12.238;2024-03-08T13:34:48;11.30;92.10
38788;DHT22;24536;45.488;12.238;2024-03-08T13:37:16;11.30;92.50
38788;DHT22;24536;45.488;12.238;2024-03-08T13:39:42;11.30;92.50
38788;DHT22;24536;45.488;12.238;2024-03-08T13:42:15;11.40;92.40
38788;DHT22;24536;45.488;12.238;2024-03-08T13:44:48;11.40;92.50
38788;DHT22;24536;45.488;12.238;2024-03-08T13:47:15;11.40;92.50
38788;DHT22;24536;45.488;12.238;2024-03-08T13:49:41;11.40;92.40
38788;DHT22;24536;45.488;12.238;2024-03-08T13:52:09;11.40;92.50
38788;DHT22;24536;45.488;12.238;2024-03-08T13:54:35;11.40;92.40
38788;DHT22;24536;45.488;12.238;2024-03-08T13:57:01;11.50;92.50
38788;DHT22;24536;45.488;12.238;2024-03-08T13:59:30;11.40;92.70
38788;DHT22;24536;45.488;12.238;2024-03-08T14:01:56;11.40;92.40
38788;DHT22;24536;45.488;12.238;2024-03-08T14:04:23;11.40;92.60
38788;DHT22;24536;45.488;12.238;2024-03-08T14:06:49;11.30;92.60
38788;DHT22;24536;45.488;12.238;2024-03-08T14:09:15;11.40;92.60
38788;DHT22;24536;45.488;12.238;2024-03-08T14:11:44;11.40;92.60
38788;DHT22;24536;45.488;12.238;2024-03-08T14:14:10;11.40;92.60
38788;DHT22;24536;45.488;12.238;2024-03-08T14:16:41;11.40;92.50
38788;DHT22;24536;45.488;12.238;2024-03-08T14:19:07;11.30;92.40
38788;DHT22;24536;45.488;12.238;2024-03-08T14:21:35;11.30;92.60
38788;DHT22;24536;45.488;12.238;2024-03-08T14:24:02;11.30;92.70
38788;DHT22;24536;45.488;12.238;2024-03-08T14:26:30;11.40;92.70
38788;DHT22;24536;45.488;12.238;2024-03-08T14:28:55;11.50;92.70
38788;DHT22;24536;45.488;12.238;2024-03-08T14:31:22;11.50;92.50
38788;DHT22;24536;45.488;12.238;2024-03-08T14:33:51;11.40;92.50
38788;DHT22;24536;45.488;12.238;2024-03-08T14:36:18;11.40;92.50
38788;DHT22;24536;45.488;12.238;2024-03-08T14:38:46;11.30;92.50
38788;DHT22;24536;45.488;12.238;2024-03-08T14:41:13;11.30;92.70
38788;DHT22;24536;45.488;12.238;2024-03-08T14:43:42;11.30;92.80
38788;DHT22;24536;45.488;12.238;2024-03-08T14:46:13;11.40;93.00
38788;DHT22;24536;45.488;12.238;2024-03-08T14:48:43;11.30;92.90
38788;DHT22;24536;45.488;12.238;2024-03-08T14:51:10;11.30;93.00
38788;DHT22;24536;45.488;12.238;2024-03-08T14:53:37;11.30;92.90
38788;DHT22;24536;45.488;12.238;2024-03-08T14:56:07;11.30;93.00
38788;DHT22;24536;45.488;12.238;2024-03-08T14:58:34;11.30;93.10
38788;DHT22;24536;45.488;12.238;2024-03-08T15:01:00;11.30;93.20
38788;DHT22;24536;45.488;12.238;2024-03-08T15:03:27;11.30;93.10
38788;DHT22;24536;45.488;12.238;2024-03-08T15:05:54;11.40;93.00
38788;DHT22;24536;45.488;12.238;2024-03-08T15:08:21;11.30;92.90
38788;DHT22;24536;45.488;12.238;2024-03-08T15:10:50;11.40;92.80
38788;DHT22;24536;45.488;12.238;2024-03-08T15:13:24;11.40;92.80
38788;DHT22;24536;45.488;12.238;2024-03-08T15:15:53;11.50;92.90
38788;DHT22;24536;45.488;12.238;2024-03-08T15:18:26;11.50;92.80
38788;DHT22;24536;45.488;12.238;2024-03-08T15:20:53;11.30;92.70
38788;DHT22;24536;45.488;12.238;2024-03-08T15:23:19;11.30;92.60
38788;DHT22;24536;45.488;12.238;2024-03-08T15:25:47;11.20;92.70
38788;DHT22;24536;45.488;12.238;2024-03-08T15:28:15;11.30;92.70
38788;DHT22;24536;45.488;12.238;2024-03-08T15:30:42;11.30;92.90
38788;DHT22;24536;45.488;12.238;2024-03-08T15:33:12;11.30;92.80
38788;DHT22;24536;45.488;12.238;2024-03-08T15:35:41;11.30;92.80